CEB113 RPLL-RPVI
Flight info
| Callsign | CEB113 |
|---|---|
| Flight time | 1h 4m |
| Altitude | 33000 |
| Route | VERDE2R VERDE A461 SAJ W3 BEDER BEDER1N |
| Aircraft | A339/H-SADE1E2E3GHIJ3J5M1P2RWXY/LB2D1 |
Departure
| Time | 2026-04-20 15:09 |
|---|---|
| Airport | Ninoy Aquino International Airport (RPLL) |
Arrival
| Time | 2026-04-20 16:14 |
|---|---|
| Airport | Iloilo International Airport (RPVI) |
| Time | Latitude | Longitude | Altitude | Speed | Heading |
|---|---|---|---|---|---|
| 2026-04-20 14:48 | 14.51614 | 121.01564 | 64 ft | 0 kts | 46° |
| 2026-04-20 14:56 | 14.51613 | 121.01563 | 64 ft | 1 kts | 46° |
| 2026-04-20 14:57 | 14.51603 | 121.01552 | 63 ft | 2 kts | 46° |
| 2026-04-20 14:57 | 14.51593 | 121.01541 | 63 ft | 2 kts | 46° |
| 2026-04-20 14:57 | 14.51583 | 121.01529 | 63 ft | 2 kts | 62° |
| 2026-04-20 14:57 | 14.51578 | 121.01514 | 63 ft | 2 kts | 75° |
| 2026-04-20 14:58 | 14.51575 | 121.01499 | 62 ft | 2 kts | 88° |
| 2026-04-20 14:58 | 14.51576 | 121.01484 | 62 ft | 2 kts | 101° |
| 2026-04-20 14:58 | 14.51580 | 121.01469 | 62 ft | 2 kts | 115° |
| 2026-04-20 14:58 | 14.51587 | 121.01456 | 62 ft | 2 kts | 127° |
| 2026-04-20 14:59 | 14.51593 | 121.01449 | 61 ft | 0 kts | 135° |
| 2026-04-20 14:59 | 14.51595 | 121.01447 | 61 ft | 0 kts | 134° |
| 2026-04-20 15:01 | 14.51587 | 121.01455 | 62 ft | 3 kts | 134° |
| 2026-04-20 15:02 | 14.51563 | 121.01480 | 62 ft | 6 kts | 134° |
| 2026-04-20 15:02 | 14.51523 | 121.01521 | 63 ft | 9 kts | 136° |
| 2026-04-20 15:02 | 14.51471 | 121.01575 | 64 ft | 11 kts | 135° |
| 2026-04-20 15:02 | 14.51408 | 121.01638 | 65 ft | 13 kts | 135° |
| 2026-04-20 15:03 | 14.51335 | 121.01714 | 65 ft | 15 kts | 134° |
| 2026-04-20 15:03 | 14.51248 | 121.01801 | 64 ft | 18 kts | 132° |
| 2026-04-20 15:03 | 14.51156 | 121.01902 | 63 ft | 19 kts | 134° |
| 2026-04-20 15:03 | 14.51072 | 121.01986 | 63 ft | 7 kts | 144° |
| 2026-04-20 15:04 | 14.51034 | 121.01971 | 62 ft | 8 kts | 230° |
| 2026-04-20 15:04 | 14.50995 | 121.01907 | 61 ft | 13 kts | 240° |
| 2026-04-20 15:04 | 14.50941 | 121.01810 | 60 ft | 17 kts | 240° |
| 2026-04-20 15:04 | 14.50878 | 121.01696 | 60 ft | 19 kts | 240° |
| 2026-04-20 15:05 | 14.50806 | 121.01566 | 61 ft | 21 kts | 240° |
| 2026-04-20 15:05 | 14.50725 | 121.01421 | 57 ft | 24 kts | 241° |
| 2026-04-20 15:05 | 14.50637 | 121.01261 | 54 ft | 24 kts | 240° |
| 2026-04-20 15:05 | 14.50547 | 121.01102 | 49 ft | 26 kts | 239° |
| 2026-04-20 15:06 | 14.50455 | 121.00936 | 46 ft | 22 kts | 241° |
| 2026-04-20 15:06 | 14.50380 | 121.00799 | 47 ft | 21 kts | 240° |
| 2026-04-20 15:06 | 14.50306 | 121.00666 | 46 ft | 21 kts | 240° |
| 2026-04-20 15:06 | 14.50229 | 121.00528 | 45 ft | 22 kts | 239° |
| 2026-04-20 15:07 | 14.50151 | 121.00387 | 44 ft | 22 kts | 243° |
| 2026-04-20 15:07 | 14.50073 | 121.00246 | 42 ft | 23 kts | 239° |
| 2026-04-20 15:07 | 14.49991 | 121.00101 | 39 ft | 23 kts | 240° |
| 2026-04-20 15:07 | 14.49927 | 120.99986 | 37 ft | 13 kts | 230° |
| 2026-04-20 15:08 | 14.49844 | 120.99986 | 38 ft | 13 kts | 153° |
| 2026-04-20 15:08 | 14.49801 | 121.00034 | 38 ft | 7 kts | 81° |
| 2026-04-20 15:08 | 14.49808 | 121.00051 | 38 ft | 0 kts | 63° |
| 2026-04-20 15:08 | 14.49812 | 121.00059 | 39 ft | 6 kts | 63° |
| 2026-04-20 15:09 | 14.49955 | 121.00319 | 41 ft | 78 kts | 61° |
| 2026-04-20 15:09 | 14.50334 | 121.01006 | 44 ft | 139 kts | 59° |
| 2026-04-20 15:09 | 14.50882 | 121.01979 | 376 ft | 162 kts | 61° |
| 2026-04-20 15:09 | 14.51434 | 121.02972 | 989 ft | 163 kts | 61° |
| 2026-04-20 15:10 | 14.51982 | 121.03996 | 1651 ft | 165 kts | 61° |
| 2026-04-20 15:10 | 14.52562 | 121.05015 | 2145 ft | 170 kts | 60° |
| 2026-04-20 15:10 | 14.53181 | 121.06130 | 2463 ft | 187 kts | 60° |
| 2026-04-20 15:10 | 14.53861 | 121.07359 | 2786 ft | 204 kts | 59° |
| 2026-04-20 15:11 | 14.54601 | 121.08693 | 3102 ft | 223 kts | 59° |
| 2026-04-20 15:11 | 14.55393 | 121.10117 | 3469 ft | 241 kts | 59° |
| 2026-04-20 15:11 | 14.56174 | 121.11734 | 3853 ft | 260 kts | 74° |
| 2026-04-20 15:11 | 14.56216 | 121.13635 | 4499 ft | 271 kts | 102° |
| 2026-04-20 15:12 | 14.55403 | 121.15362 | 5318 ft | 275 kts | 128° |
| 2026-04-20 15:12 | 14.54064 | 121.16778 | 6181 ft | 277 kts | 133° |
| 2026-04-20 15:12 | 14.52690 | 121.18162 | 6985 ft | 279 kts | 133° |
| 2026-04-20 15:12 | 14.51305 | 121.19571 | 7786 ft | 281 kts | 133° |
| 2026-04-20 15:13 | 14.49910 | 121.21002 | 8591 ft | 283 kts | 132° |
| 2026-04-20 15:13 | 14.48466 | 121.22395 | 9337 ft | 288 kts | 142° |
| 2026-04-20 15:13 | 14.46623 | 121.23248 | 10049 ft | 297 kts | 165° |
| 2026-04-20 15:13 | 14.44556 | 121.23323 | 10631 ft | 311 kts | 187° |
| 2026-04-20 15:14 | 14.42461 | 121.22498 | 10960 ft | 333 kts | 213° |
| 2026-04-20 15:14 | 14.40728 | 121.20790 | 11279 ft | 352 kts | 228° |
| 2026-04-20 15:14 | 14.39104 | 121.18862 | 11750 ft | 363 kts | 228° |
| 2026-04-20 15:14 | 14.37429 | 121.16891 | 12507 ft | 366 kts | 228° |
| 2026-04-20 15:15 | 14.35697 | 121.14980 | 13273 ft | 366 kts | 220° |
| 2026-04-20 15:15 | 14.33485 | 121.13732 | 13911 ft | 366 kts | 194° |
| 2026-04-20 15:15 | 14.30978 | 121.13335 | 14624 ft | 366 kts | 184° |
| 2026-04-20 15:15 | 14.28417 | 121.13143 | 15290 ft | 370 kts | 183° |
| 2026-04-20 15:16 | 14.25810 | 121.12939 | 15924 ft | 374 kts | 184° |
| 2026-04-20 15:16 | 14.23219 | 121.12690 | 16529 ft | 377 kts | 185° |
| 2026-04-20 15:16 | 14.20555 | 121.12394 | 17138 ft | 380 kts | 186° |
| 2026-04-20 15:16 | 14.17937 | 121.12080 | 17730 ft | 383 kts | 187° |
| 2026-04-20 15:17 | 14.15246 | 121.11740 | 18337 ft | 386 kts | 187° |
| 2026-04-20 15:17 | 14.12567 | 121.11393 | 18938 ft | 388 kts | 187° |
| 2026-04-20 15:17 | 14.09860 | 121.11038 | 19525 ft | 390 kts | 187° |
| 2026-04-20 15:17 | 14.07155 | 121.10681 | 20094 ft | 393 kts | 187° |
| 2026-04-20 15:18 | 14.04459 | 121.10324 | 20635 ft | 395 kts | 187° |
| 2026-04-20 15:18 | 14.01703 | 121.09959 | 21171 ft | 397 kts | 187° |
| 2026-04-20 15:18 | 13.98925 | 121.09592 | 21703 ft | 399 kts | 187° |
| 2026-04-20 15:18 | 13.96184 | 121.09229 | 22209 ft | 401 kts | 187° |
| 2026-04-20 15:19 | 13.93382 | 121.08859 | 22705 ft | 404 kts | 187° |
| 2026-04-20 15:19 | 13.90588 | 121.08490 | 23194 ft | 407 kts | 187° |
| 2026-04-20 15:19 | 13.87731 | 121.08112 | 23707 ft | 409 kts | 187° |
| 2026-04-20 15:19 | 13.84899 | 121.07738 | 24200 ft | 412 kts | 187° |
| 2026-04-20 15:20 | 13.82018 | 121.07356 | 24670 ft | 415 kts | 187° |
| 2026-04-20 15:20 | 13.79166 | 121.06979 | 25140 ft | 417 kts | 187° |
| 2026-04-20 15:20 | 13.76243 | 121.06593 | 25624 ft | 420 kts | 187° |
| 2026-04-20 15:20 | 13.73358 | 121.06210 | 26077 ft | 422 kts | 188° |
| 2026-04-20 15:21 | 13.70419 | 121.05821 | 26508 ft | 425 kts | 188° |
| 2026-04-20 15:21 | 13.67462 | 121.05430 | 26950 ft | 428 kts | 188° |
| 2026-04-20 15:21 | 13.64509 | 121.05039 | 27370 ft | 431 kts | 188° |
| 2026-04-20 15:21 | 13.61528 | 121.04644 | 27795 ft | 433 kts | 188° |
| 2026-04-20 15:22 | 13.58510 | 121.04245 | 28230 ft | 435 kts | 188° |
| 2026-04-20 15:22 | 13.55473 | 121.03844 | 28644 ft | 438 kts | 188° |
| 2026-04-20 15:22 | 13.52460 | 121.03476 | 29051 ft | 440 kts | 186° |
| 2026-04-20 15:22 | 13.49351 | 121.03264 | 29482 ft | 442 kts | 183° |
| 2026-04-20 15:23 | 13.46288 | 121.03223 | 29926 ft | 444 kts | 181° |
| 2026-04-20 15:23 | 13.43181 | 121.03251 | 30366 ft | 445 kts | 180° |
| 2026-04-20 15:23 | 13.40041 | 121.03284 | 30813 ft | 446 kts | 180° |
| 2026-04-20 15:23 | 13.36931 | 121.03316 | 31200 ft | 449 kts | 180° |
| 2026-04-20 15:24 | 13.33767 | 121.03349 | 31568 ft | 451 kts | 180° |
| 2026-04-20 15:24 | 13.30627 | 121.03382 | 32015 ft | 452 kts | 180° |
| 2026-04-20 15:24 | 13.27379 | 121.03415 | 32533 ft | 451 kts | 180° |
| 2026-04-20 15:24 | 13.24197 | 121.03446 | 33027 ft | 451 kts | 180° |
| 2026-04-20 15:25 | 13.21051 | 121.03477 | 33179 ft | 453 kts | 180° |
| 2026-04-20 15:25 | 13.14733 | 121.03539 | 33165 ft | 454 kts | 181° |
| 2026-04-20 15:26 | 13.08356 | 121.03601 | 33142 ft | 455 kts | 180° |
| 2026-04-20 15:26 | 13.02020 | 121.03664 | 33118 ft | 456 kts | 181° |
| 2026-04-20 15:27 | 12.95638 | 121.03726 | 33093 ft | 455 kts | 181° |
| 2026-04-20 15:27 | 12.89286 | 121.03789 | 33085 ft | 455 kts | 180° |
| 2026-04-20 15:28 | 12.82880 | 121.03851 | 33071 ft | 455 kts | 180° |
| 2026-04-20 15:28 | 12.76557 | 121.03914 | 33049 ft | 455 kts | 180° |
| 2026-04-20 15:29 | 12.70228 | 121.03977 | 33043 ft | 454 kts | 180° |
| 2026-04-20 15:29 | 12.63853 | 121.04040 | 33024 ft | 455 kts | 180° |
| 2026-04-20 15:30 | 12.57476 | 121.04105 | 33011 ft | 456 kts | 180° |
| 2026-04-20 15:30 | 12.51122 | 121.04167 | 32992 ft | 455 kts | 180° |
| 2026-04-20 15:31 | 12.44738 | 121.04334 | 32977 ft | 456 kts | 175° |
| 2026-04-20 15:31 | 12.38523 | 121.05669 | 32978 ft | 459 kts | 163° |
| 2026-04-20 15:32 | 12.32640 | 121.08418 | 32982 ft | 463 kts | 150° |
| 2026-04-20 15:32 | 12.27527 | 121.12398 | 32978 ft | 466 kts | 140° |
| 2026-04-20 15:33 | 12.22775 | 121.16927 | 32690 ft | 466 kts | 139° |
| 2026-04-20 15:33 | 12.20413 | 121.19199 | 32431 ft | 463 kts | 139° |
| 2026-04-20 15:33 | 12.18056 | 121.21462 | 32100 ft | 461 kts | 139° |
| 2026-04-20 15:33 | 12.15729 | 121.23694 | 31643 ft | 459 kts | 139° |
| 2026-04-20 15:34 | 12.13391 | 121.25933 | 31057 ft | 459 kts | 139° |
| 2026-04-20 15:34 | 12.11050 | 121.28170 | 30431 ft | 459 kts | 139° |
| 2026-04-20 15:34 | 12.08745 | 121.30372 | 29980 ft | 455 kts | 139° |
| 2026-04-20 15:34 | 12.06456 | 121.32560 | 29542 ft | 450 kts | 139° |
| 2026-04-20 15:35 | 12.04185 | 121.34730 | 29104 ft | 446 kts | 139° |
| 2026-04-20 15:35 | 12.01903 | 121.36909 | 28637 ft | 442 kts | 139° |
| 2026-04-20 15:35 | 11.99666 | 121.39043 | 28194 ft | 439 kts | 139° |
| 2026-04-20 15:35 | 11.97467 | 121.41142 | 27764 ft | 435 kts | 139° |
| 2026-04-20 15:36 | 11.95249 | 121.43259 | 27339 ft | 431 kts | 139° |
| 2026-04-20 15:36 | 11.93072 | 121.45335 | 26934 ft | 427 kts | 138° |
| 2026-04-20 15:36 | 11.90907 | 121.47400 | 26526 ft | 423 kts | 138° |
| 2026-04-20 15:36 | 11.88751 | 121.49455 | 26114 ft | 420 kts | 138° |
| 2026-04-20 15:37 | 11.86590 | 121.51514 | 25703 ft | 416 kts | 138° |
| 2026-04-20 15:37 | 11.84459 | 121.53548 | 25310 ft | 413 kts | 138° |
| 2026-04-20 15:37 | 11.82389 | 121.55520 | 24919 ft | 409 kts | 138° |
| 2026-04-20 15:37 | 11.80301 | 121.57508 | 24532 ft | 406 kts | 138° |
| 2026-04-20 15:38 | 11.78255 | 121.59457 | 24137 ft | 403 kts | 138° |
| 2026-04-20 15:38 | 11.76214 | 121.61401 | 23746 ft | 400 kts | 138° |
| 2026-04-20 15:38 | 11.74184 | 121.63337 | 23361 ft | 397 kts | 138° |
| 2026-04-20 15:38 | 11.72156 | 121.65269 | 22967 ft | 394 kts | 138° |
| 2026-04-20 15:39 | 11.70154 | 121.67175 | 22583 ft | 391 kts | 138° |
| 2026-04-20 15:39 | 11.68183 | 121.69048 | 22190 ft | 389 kts | 138° |
| 2026-04-20 15:39 | 11.66200 | 121.70933 | 21804 ft | 387 kts | 138° |
| 2026-04-20 15:39 | 11.64226 | 121.72809 | 21410 ft | 386 kts | 138° |
| 2026-04-20 15:40 | 11.62272 | 121.74663 | 21004 ft | 384 kts | 138° |
| 2026-04-20 15:40 | 11.60326 | 121.76511 | 20603 ft | 383 kts | 137° |
| 2026-04-20 15:40 | 11.58376 | 121.78364 | 20190 ft | 382 kts | 137° |
| 2026-04-20 15:40 | 11.56418 | 121.80225 | 19773 ft | 381 kts | 137° |
| 2026-04-20 15:41 | 11.54502 | 121.82045 | 19357 ft | 380 kts | 137° |
| 2026-04-20 15:41 | 11.52553 | 121.83897 | 18943 ft | 379 kts | 137° |
| 2026-04-20 15:41 | 11.50635 | 121.85718 | 18524 ft | 378 kts | 137° |
| 2026-04-20 15:41 | 11.48698 | 121.87556 | 18120 ft | 376 kts | 137° |
| 2026-04-20 15:42 | 11.46789 | 121.89365 | 17716 ft | 375 kts | 137° |
| 2026-04-20 15:42 | 11.44900 | 121.91155 | 17305 ft | 374 kts | 137° |
| 2026-04-20 15:42 | 11.42993 | 121.92962 | 16896 ft | 373 kts | 137° |
| 2026-04-20 15:42 | 11.41083 | 121.94772 | 16499 ft | 371 kts | 137° |
| 2026-04-20 15:43 | 11.39213 | 121.96545 | 16100 ft | 369 kts | 137° |
| 2026-04-20 15:43 | 11.37328 | 121.98332 | 15696 ft | 368 kts | 137° |
| 2026-04-20 15:43 | 11.35455 | 122.00108 | 15293 ft | 367 kts | 137° |
| 2026-04-20 15:43 | 11.33590 | 122.01876 | 14883 ft | 365 kts | 136° |
| 2026-04-20 15:44 | 11.31731 | 122.03638 | 14485 ft | 364 kts | 136° |
| 2026-04-20 15:44 | 11.29889 | 122.05383 | 14089 ft | 362 kts | 136° |
| 2026-04-20 15:44 | 11.28027 | 122.07148 | 13683 ft | 361 kts | 136° |
| 2026-04-20 15:44 | 11.26205 | 122.08874 | 13286 ft | 359 kts | 136° |
| 2026-04-20 15:45 | 11.24376 | 122.10606 | 12890 ft | 357 kts | 136° |
| 2026-04-20 15:45 | 11.22548 | 122.12337 | 12498 ft | 355 kts | 136° |
| 2026-04-20 15:45 | 11.20755 | 122.14037 | 12117 ft | 353 kts | 136° |
| 2026-04-20 15:45 | 11.18944 | 122.15754 | 11738 ft | 351 kts | 136° |
| 2026-04-20 15:46 | 11.17165 | 122.17440 | 11358 ft | 349 kts | 136° |
| 2026-04-20 15:46 | 11.15393 | 122.19116 | 10986 ft | 346 kts | 136° |
| 2026-04-20 15:46 | 11.13645 | 122.20770 | 10621 ft | 344 kts | 135° |
| 2026-04-20 15:46 | 11.11905 | 122.22416 | 10468 ft | 334 kts | 135° |
| 2026-04-20 15:47 | 11.10223 | 122.24008 | 10419 ft | 321 kts | 135° |
| 2026-04-20 15:47 | 11.08620 | 122.25523 | 10365 ft | 309 kts | 135° |
| 2026-04-20 15:47 | 11.07078 | 122.26981 | 10305 ft | 298 kts | 135° |
| 2026-04-20 15:47 | 11.05569 | 122.28406 | 10206 ft | 289 kts | 135° |
| 2026-04-20 15:48 | 11.04086 | 122.29799 | 9901 ft | 289 kts | 135° |
| 2026-04-20 15:48 | 11.02606 | 122.31187 | 9599 ft | 288 kts | 135° |
| 2026-04-20 15:48 | 11.01148 | 122.32556 | 9305 ft | 287 kts | 135° |
| 2026-04-20 15:48 | 10.99676 | 122.33938 | 9008 ft | 287 kts | 135° |
| 2026-04-20 15:49 | 10.98192 | 122.35331 | 8704 ft | 286 kts | 135° |
| 2026-04-20 15:49 | 10.96736 | 122.36697 | 8414 ft | 285 kts | 135° |
| 2026-04-20 15:49 | 10.95262 | 122.38078 | 8129 ft | 284 kts | 136° |
| 2026-04-20 15:49 | 10.93608 | 122.39129 | 7993 ft | 281 kts | 162° |
| 2026-04-20 15:50 | 10.91667 | 122.39208 | 7842 ft | 281 kts | 189° |
| 2026-04-20 15:50 | 10.89768 | 122.38690 | 7665 ft | 278 kts | 193° |
| 2026-04-20 15:50 | 10.87907 | 122.38151 | 7489 ft | 274 kts | 193° |
| 2026-04-20 15:50 | 10.86089 | 122.37633 | 7318 ft | 271 kts | 193° |
| 2026-04-20 15:51 | 10.84250 | 122.37119 | 7141 ft | 267 kts | 193° |
| 2026-04-20 15:51 | 10.82456 | 122.36626 | 6930 ft | 265 kts | 192° |
| 2026-04-20 15:51 | 10.80687 | 122.36143 | 6694 ft | 265 kts | 192° |
| 2026-04-20 15:51 | 10.78885 | 122.35655 | 6373 ft | 269 kts | 193° |
| 2026-04-20 15:52 | 10.77053 | 122.35160 | 6012 ft | 273 kts | 193° |
| 2026-04-20 15:52 | 10.75195 | 122.34656 | 5708 ft | 275 kts | 193° |
| 2026-04-20 15:52 | 10.73344 | 122.34155 | 5370 ft | 278 kts | 193° |
| 2026-04-20 15:53 | 10.69654 | 122.33154 | 5118 ft | 266 kts | 192° |
| 2026-04-20 15:53 | 10.67848 | 122.32833 | 4970 ft | 257 kts | 172° |
| 2026-04-20 15:53 | 10.66246 | 122.33449 | 4755 ft | 246 kts | 136° |
| 2026-04-20 15:53 | 10.65280 | 122.34845 | 4525 ft | 239 kts | 108° |
| 2026-04-20 15:54 | 10.64749 | 122.36451 | 4313 ft | 238 kts | 106° |
| 2026-04-20 15:54 | 10.64225 | 122.38040 | 4092 ft | 238 kts | 106° |
| 2026-04-20 15:54 | 10.63693 | 122.39635 | 3880 ft | 237 kts | 102° |
| 2026-04-20 15:54 | 10.63673 | 122.41272 | 3638 ft | 233 kts | 71° |
| 2026-04-20 15:55 | 10.64518 | 122.42632 | 3397 ft | 229 kts | 40° |
| 2026-04-20 15:55 | 10.65942 | 122.43322 | 3107 ft | 227 kts | 16° |
| 2026-04-20 15:55 | 10.67483 | 122.43660 | 2849 ft | 222 kts | 16° |
| 2026-04-20 15:55 | 10.68948 | 122.44055 | 2638 ft | 209 kts | 20° |
| 2026-04-20 15:56 | 10.70283 | 122.44504 | 2597 ft | 196 kts | 22° |
| 2026-04-20 15:56 | 10.71569 | 122.44979 | 2379 ft | 196 kts | 23° |
| 2026-04-20 15:56 | 10.72855 | 122.45464 | 2068 ft | 196 kts | 23° |
| 2026-04-20 15:56 | 10.74098 | 122.45927 | 1847 ft | 182 kts | 23° |
| 2026-04-20 15:57 | 10.75272 | 122.46362 | 1600 ft | 173 kts | 23° |
| 2026-04-20 15:57 | 10.76389 | 122.46777 | 1361 ft | 166 kts | 23° |
| 2026-04-20 15:57 | 10.77461 | 122.47175 | 1142 ft | 159 kts | 23° |
| 2026-04-20 15:57 | 10.78478 | 122.47552 | 941 ft | 152 kts | 23° |
| 2026-04-20 15:58 | 10.79469 | 122.47918 | 733 ft | 147 kts | 23° |
| 2026-04-20 15:58 | 10.80411 | 122.48267 | 541 ft | 141 kts | 23° |
| 2026-04-20 15:58 | 10.81315 | 122.48604 | 350 ft | 135 kts | 21° |
| 2026-04-20 15:58 | 10.82180 | 122.48917 | 205 ft | 133 kts | 21° |
| 2026-04-20 15:59 | 10.83108 | 122.49306 | 732 ft | 153 kts | 30° |
| 2026-04-20 15:59 | 10.84049 | 122.49839 | 1544 ft | 161 kts | 32° |
| 2026-04-20 15:59 | 10.85055 | 122.50380 | 2178 ft | 171 kts | 25° |
| 2026-04-20 15:59 | 10.86253 | 122.50769 | 2620 ft | 191 kts | 19° |
| 2026-04-20 16:00 | 10.87603 | 122.51160 | 3058 ft | 206 kts | 19° |
| 2026-04-20 16:00 | 10.88985 | 122.51579 | 3488 ft | 210 kts | 20° |
| 2026-04-20 16:00 | 10.90392 | 122.52026 | 3857 ft | 212 kts | 20° |
| 2026-04-20 16:00 | 10.91808 | 122.52495 | 3957 ft | 212 kts | 24° |
| 2026-04-20 16:01 | 10.93040 | 122.53270 | 3953 ft | 208 kts | 48° |
| 2026-04-20 16:01 | 10.93806 | 122.54501 | 3956 ft | 206 kts | 71° |
| 2026-04-20 16:01 | 10.93984 | 122.55956 | 3957 ft | 208 kts | 95° |
| 2026-04-20 16:01 | 10.93545 | 122.57349 | 3955 ft | 213 kts | 118° |
| 2026-04-20 16:02 | 10.92528 | 122.58463 | 3956 ft | 220 kts | 143° |
| 2026-04-20 16:02 | 10.91076 | 122.59034 | 3956 ft | 227 kts | 169° |
| 2026-04-20 16:02 | 10.89488 | 122.58887 | 3961 ft | 233 kts | 192° |
| 2026-04-20 16:02 | 10.87915 | 122.58400 | 3959 ft | 234 kts | 195° |
| 2026-04-20 16:03 | 10.86376 | 122.57885 | 3958 ft | 233 kts | 195° |
| 2026-04-20 16:03 | 10.84810 | 122.57375 | 3956 ft | 233 kts | 194° |
| 2026-04-20 16:03 | 10.83252 | 122.56879 | 3956 ft | 233 kts | 194° |
| 2026-04-20 16:03 | 10.81695 | 122.56385 | 3955 ft | 232 kts | 194° |
| 2026-04-20 16:04 | 10.80143 | 122.55890 | 3956 ft | 233 kts | 194° |
| 2026-04-20 16:04 | 10.78599 | 122.55397 | 3955 ft | 233 kts | 194° |
| 2026-04-20 16:04 | 10.77041 | 122.54898 | 3955 ft | 232 kts | 194° |
| 2026-04-20 16:04 | 10.75496 | 122.54402 | 3955 ft | 232 kts | 194° |
| 2026-04-20 16:05 | 10.73950 | 122.53907 | 3955 ft | 233 kts | 194° |
| 2026-04-20 16:05 | 10.72385 | 122.53406 | 3957 ft | 232 kts | 194° |
| 2026-04-20 16:05 | 10.70845 | 122.52913 | 3878 ft | 232 kts | 194° |
| 2026-04-20 16:05 | 10.69295 | 122.52415 | 3752 ft | 228 kts | 194° |
| 2026-04-20 16:06 | 10.67791 | 122.51932 | 3631 ft | 223 kts | 194° |
| 2026-04-20 16:06 | 10.66317 | 122.51460 | 3513 ft | 218 kts | 194° |
| 2026-04-20 16:06 | 10.64881 | 122.51000 | 3399 ft | 212 kts | 194° |
| 2026-04-20 16:06 | 10.63484 | 122.50552 | 3293 ft | 207 kts | 194° |
| 2026-04-20 16:07 | 10.62135 | 122.50114 | 3215 ft | 200 kts | 198° |
| 2026-04-20 16:07 | 10.60968 | 122.49371 | 3172 ft | 197 kts | 226° |
| 2026-04-20 16:07 | 10.60228 | 122.48191 | 3157 ft | 198 kts | 253° |
| 2026-04-20 16:07 | 10.60050 | 122.46818 | 3088 ft | 196 kts | 279° |
| 2026-04-20 16:08 | 10.60442 | 122.45525 | 3017 ft | 184 kts | 303° |
| 2026-04-20 16:08 | 10.61103 | 122.44472 | 2933 ft | 175 kts | 309° |
| 2026-04-20 16:08 | 10.61809 | 122.43449 | 2811 ft | 174 kts | 312° |
| 2026-04-20 16:08 | 10.62682 | 122.42655 | 2648 ft | 167 kts | 338° |
| 2026-04-20 16:09 | 10.63772 | 122.42416 | 2605 ft | 158 kts | 7° |
| 2026-04-20 16:09 | 10.64862 | 122.42587 | 2626 ft | 157 kts | 18° |
| 2026-04-20 16:09 | 10.65913 | 122.42905 | 2623 ft | 156 kts | 22° |
| 2026-04-20 16:09 | 10.66952 | 122.43273 | 2610 ft | 156 kts | 23° |
| 2026-04-20 16:10 | 10.67971 | 122.43649 | 2596 ft | 156 kts | 24° |
| 2026-04-20 16:10 | 10.69001 | 122.44033 | 2576 ft | 156 kts | 24° |
| 2026-04-20 16:10 | 10.70022 | 122.44414 | 2543 ft | 156 kts | 24° |
| 2026-04-20 16:10 | 10.71065 | 122.44801 | 2461 ft | 157 kts | 24° |
| 2026-04-20 16:11 | 10.72093 | 122.45183 | 2251 ft | 158 kts | 24° |
| 2026-04-20 16:11 | 10.73135 | 122.45569 | 2027 ft | 156 kts | 24° |
| 2026-04-20 16:11 | 10.74134 | 122.45939 | 1825 ft | 150 kts | 23° |
| 2026-04-20 16:11 | 10.75098 | 122.46295 | 1621 ft | 144 kts | 24° |
| 2026-04-20 16:12 | 10.76028 | 122.46641 | 1430 ft | 137 kts | 23° |
| 2026-04-20 16:12 | 10.76923 | 122.46973 | 1262 ft | 137 kts | 23° |
| 2026-04-20 16:12 | 10.77826 | 122.47308 | 1074 ft | 137 kts | 23° |
| 2026-04-20 16:12 | 10.78728 | 122.47643 | 889 ft | 137 kts | 23° |
| 2026-04-20 16:13 | 10.79615 | 122.47971 | 710 ft | 136 kts | 23° |
| 2026-04-20 16:13 | 10.80513 | 122.48302 | 524 ft | 136 kts | 22° |
| 2026-04-20 16:13 | 10.81409 | 122.48626 | 363 ft | 134 kts | 23° |
| 2026-04-20 16:13 | 10.82279 | 122.48949 | 199 ft | 131 kts | 22° |
| 2026-04-20 16:14 | 10.83039 | 122.49248 | 184 ft | 95 kts | 17° |
| 2026-04-20 16:14 | 10.83474 | 122.49402 | 184 ft | 41 kts | 20° |
| 2026-04-20 16:14 | 10.83648 | 122.49474 | 184 ft | 15 kts | 27° |
| 2026-04-20 16:14 | 10.83754 | 122.49513 | 184 ft | 17 kts | 13° |
| 2026-04-20 16:15 | 10.83877 | 122.49551 | 184 ft | 19 kts | 21° |
| 2026-04-20 16:15 | 10.84005 | 122.49610 | 184 ft | 20 kts | 27° |